Time;durP1;ratioP1;P1;durP2;ratioP2;P2;SDS_P1;SDS_P2;PMS_P1;PMS_P2;Temp;Humidity;BMP_temperature;BMP_pressure;BME280_temperature;BME280_humidity;BME280_pressure;Samples;Min_cycle;Max_cycle;Signal;HPM_P1;HPM_P2
2021/12/28 00:02:00;;;;;;;28.57;14.33;;;;;;;-4.93;100.00;98328.86;2160692;82;21051;-83
2021/12/28 00:05:00;;;;;;;31.97;17.00;;;;;;;-4.95;100.00;98326.83;2160792;82;21013;-83
2021/12/28 00:08:01;;;;;;;34.92;19.12;;;;;;;-4.98;100.00;98338.52;2160715;82;21066;-83
2021/12/28 00:11:02;;;;;;;33.33;17.20;;;;;;;-4.96;100.00;98334.13;2160927;82;21042;-83
2021/12/28 00:14:04;;;;;;;33.98;18.10;;;;;;;-4.93;100.00;98326.31;2160659;82;21066;-83
2021/12/28 00:20:24;;;;;;;34.05;18.27;;;;;;;-4.90;100.00;98319.73;2160889;82;21573;-84
2021/12/28 00:23:26;;;;;;;29.32;15.80;;;;;;;-4.91;100.00;98318.55;2160689;82;20972;-84
2021/12/28 00:26:27;;;;;;;30.40;16.90;;;;;;;-4.96;100.00;98322.64;2160936;82;21034;-83
2021/12/28 00:29:28;;;;;;;38.13;19.67;;;;;;;-4.95;100.00;98320.91;2160909;82;21034;-83
2021/12/28 00:32:29;;;;;;;39.20;19.23;;;;;;;-4.92;100.00;98325.39;2160703;82;21050;-82
2021/12/28 00:35:30;;;;;;;38.70;20.75;;;;;;;-4.90;100.00;98325.30;2160873;82;21516;-82
2021/12/28 00:38:32;;;;;;;35.65;18.40;;;;;;;-4.94;100.00;98332.33;2160741;82;21038;-83
2021/12/28 00:41:33;;;;;;;34.25;18.67;;;;;;;-4.95;100.00;98326.83;2160778;82;21043;-83
2021/12/28 00:44:34;;;;;;;31.48;16.77;;;;;;;-4.91;100.00;98326.21;2160776;82;21549;-83
2021/12/28 00:47:35;;;;;;;38.20;19.80;;;;;;;-4.88;100.00;98326.83;2160768;82;21009;-83
2021/12/28 00:50:36;;;;;;;35.50;18.37;;;;;;;-4.87;100.00;98331.03;2160678;82;21014;-83
2021/12/28 00:53:36;;;;;;;34.33;17.25;;;;;;;-4.92;100.00;98337.34;2160646;82;21048;-83
2021/12/28 00:56:37;;;;;;;37.33;20.25;;;;;;;-4.91;100.00;98325.75;2160609;82;20978;-83
2021/12/28 00:59:38;;;;;;;32.70;17.85;;;;;;;-4.93;100.00;98335.25;2160962;82;20962;-83
2021/12/28 01:02:39;;;;;;;36.15;18.30;;;;;;;-4.95;100.00;98326.83;2160642;82;21030;-83
2021/12/28 01:05:39;;;;;;;31.05;16.73;;;;;;;-4.92;100.00;98330.95;2168728;82;21054;-83
2021/12/28 01:08:40;;;;;;;33.15;19.27;;;;;;;-4.92;100.00;98326.67;2177984;82;21053;-83
2021/12/28 01:11:42;;;;;;;27.10;15.88;;;;;;;-4.95;100.00;98326.02;2177824;82;21069;-83
2021/12/28 01:14:43;;;;;;;31.10;14.43;;;;;;;-4.98;100.00;98326.20;2178003;82;21005;-83
2021/12/28 01:17:43;;;;;;;37.53;18.20;;;;;;;-5.03;100.00;98320.54;2178085;82;21049;-83
2021/12/28 01:20:44;;;;;;;30.23;14.10;;;;;;;-5.05;100.00;98322.38;2178058;81;20997;-83
2021/12/28 01:23:45;;;;;;;37.23;16.55;;;;;;;-5.07;100.00;98311.44;2178144;82;21097;-83
2021/12/28 01:26:46;;;;;;;29.77;16.05;;;;;;;-5.07;100.00;98312.25;2178083;82;20970;-83
2021/12/28 01:29:47;;;;;;;34.33;18.37;;;;;;;-5.05;100.00;98302.77;2177950;82;21504;-83
2021/12/28 01:32:47;;;;;;;25.92;14.73;;;;;;;-5.03;100.00;98300.96;2178132;81;20926;-83
2021/12/28 01:35:50;;;;;;;39.55;19.60;;;;;;;-5.01;100.00;98308.06;2178105;82;21536;-82
2021/12/28 01:38:51;;;;;;;38.42;18.77;;;;;;;-5.08;100.00;98308.52;2178324;82;21077;-80
2021/12/28 01:41:51;;;;;;;33.88;16.77;;;;;;;-5.14;100.00;98300.77;2178269;82;20938;-82
2021/12/28 01:44:53;;;;;;;26.40;15.98;;;;;;;-5.15;100.00;98292.28;2177661;82;21045;-87
2021/12/28 01:47:53;;;;;;;28.80;14.78;;;;;;;-5.12;100.00;98291.30;2178125;82;21501;-86
2021/12/28 01:50:54;;;;;;;33.18;18.05;;;;;;;-5.09;100.00;98292.38;2177756;82;21104;-87
2021/12/28 01:53:56;;;;;;;26.27;15.20;;;;;;;-5.10;100.00;98286.92;2178248;82;21021;-88
2021/12/28 01:56:56;;;;;;;33.92;18.27;;;;;;;-5.09;100.00;98287.28;2178148;82;21524;-87
2021/12/28 01:59:57;;;;;;;34.35;17.42;;;;;;;-5.15;100.00;98272.31;2178148;82;20931;-88
2021/12/28 02:02:59;;;;;;;31.05;16.55;;;;;;;-5.12;100.00;98268.75;2178227;82;21575;-87
2021/12/28 02:06:00;;;;;;;35.55;15.95;;;;;;;-5.14;100.00;98266.30;2178423;81;21501;-85
2021/12/28 02:09:00;;;;;;;27.22;13.95;;;;;;;-5.12;100.00;98273.43;2178485;82;20957;-86
2021/12/28 02:12:01;;;;;;;38.02;19.67;;;;;;;-5.16;100.00;98266.39;2178642;82;21504;-86
2021/12/28 02:15:06;;;;;;;31.93;15.88;;;;;;;-5.22;100.00;98266.75;2178259;82;21036;-86
2021/12/28 02:18:04;;;;;;;33.15;17.62;;;;;;;-5.22;100.00;98264.20;2177849;82;21025;-86
2021/12/28 02:21:05;;;;;;;31.90;16.07;;;;;;;-5.30;100.00;98254.93;2178254;82;21003;-87
2021/12/28 02:24:06;;;;;;;37.67;19.42;;;;;;;-5.27;100.00;98248.36;2178540;82;21081;-87
2021/12/28 02:27:07;;;;;;;29.25;15.78;;;;;;;-5.24;100.00;98246.06;2178089;82;20950;-86
2021/12/28 02:30:08;;;;;;;38.30;19.15;;;;;;;-5.24;100.00;98244.33;2178215;82;21025;-86
2021/12/28 02:33:08;;;;;;;39.33;18.60;;;;;;;-5.22;100.00;98241.23;2178173;82;21604;-86
2021/12/28 02:36:09;;;;;;;33.98;16.75;;;;;;;-5.18;100.00;98239.33;2178139;82;21063;-84
2021/12/28 02:39:10;;;;;;;34.00;18.57;;;;;;;-5.16;100.00;98240.05;2178323;82;21004;-87
2021/12/28 02:42:11;;;;;;;35.88;17.05;;;;;;;-5.15;100.00;98234.02;2178103;82;21481;-86
2021/12/28 02:45:12;;;;;;;40.60;17.57;;;;;;;-5.17;100.00;98235.40;2178244;82;20977;-85
2021/12/28 02:48:13;;;;;;;34.80;17.90;;;;;;;-5.17;100.00;98246.06;2177996;82;21041;-87
2021/12/28 02:51:13;;;;;;;25.32;13.80;;;;;;;-5.12;100.00;98247.05;2178394;82;22036;-87
2021/12/28 02:54:14;;;;;;;37.45;18.37;;;;;;;-5.10;100.00;98252.45;2178045;82;21004;-86
2021/12/28 02:57:15;;;;;;;37.60;20.12;;;;;;;-5.07;100.00;98248.42;2178109;82;21028;-88
2021/12/28 03:00:16;;;;;;;36.48;18.57;;;;;;;-5.04;100.00;98240.56;2178196;81;21040;-88
2021/12/28 03:03:17;;;;;;;38.92;19.67;;;;;;;-4.97;100.00;98244.85;2178102;82;20981;-88
2021/12/28 03:06:17;;;;;;;34.33;16.80;;;;;;;-4.91;100.00;98240.20;2177922;81;22178;-87
2021/12/28 03:09:20;;;;;;;35.68;18.73;;;;;;;-4.89;100.00;98231.16;2177788;82;21053;-87
2021/12/28 03:12:21;;;;;;;35.90;18.57;;;;;;;-4.89;100.00;98231.97;2178210;82;20978;-86
2021/12/28 03:15:22;;;;;;;33.42;14.68;;;;;;;-4.93;100.00;98220.78;2178391;81;21021;-88
2021/12/28 03:18:23;;;;;;;36.80;18.67;;;;;;;-4.93;100.00;98219.05;2178166;82;20978;-86
2021/12/28 03:21:23;;;;;;;32.03;15.20;;;;;;;-4.92;100.00;98216.85;2178424;82;21541;-87
2021/12/28 03:24:24;;;;;;;32.40;18.35;;;;;;;-4.90;100.00;98215.02;2178359;82;21054;-88
2021/12/28 03:27:25;;;;;;;30.30;15.72;;;;;;;-4.83;100.00;98220.57;2178583;82;21013;-86
2021/12/28 03:30:26;;;;;;;37.93;18.85;;;;;;;-4.81;100.00;98211.53;2178832;82;21053;-85
2021/12/28 03:33:27;;;;;;;36.25;19.65;;;;;;;-4.82;100.00;98218.37;2178649;82;20970;-88
2021/12/28 03:36:28;;;;;;;38.73;20.50;;;;;;;-4.80;100.00;98208.88;2178556;82;21041;-86
2021/12/28 03:39:29;;;;;;;38.38;20.43;;;;;;;-4.75;100.00;98215.80;2178323;81;21037;-88
2021/12/28 03:42:30;;;;;;;34.95;18.00;;;;;;;-4.74;100.00;98207.22;2178226;82;20996;-88
2021/12/28 03:45:30;;;;;;;30.57;15.38;;;;;;;-4.72;100.00;98213.51;2178169;82;20954;-87
2021/12/28 03:48:31;;;;;;;27.60;16.57;;;;;;;-4.82;100.00;98203.52;2178384;82;21566;-88
2021/12/28 03:51:32;;;;;;;37.65;20.25;;;;;;;-4.83;100.00;98210.36;2178291;82;20982;-87
2021/12/28 03:54:33;;;;;;;38.23;19.15;;;;;;;-4.88;100.00;98204.70;2178154;81;21473;-87
2021/12/28 03:57:33;;;;;;;23.65;13.00;;;;;;;-4.92;100.00;98213.02;2178238;82;20973;-87
2021/12/28 04:00:34;;;;;;;33.48;17.25;;;;;;;-4.92;100.00;98204.55;2178633;82;21084;-87
2021/12/28 04:03:35;;;;;;;34.13;17.52;;;;;;;-4.94;100.00;98214.86;2178187;82;20957;-87
2021/12/28 04:06:37;;;;;;;21.37;12.68;;;;;;;-4.93;100.00;98217.77;2169243;82;21112;-87
2021/12/28 04:12:51;;;;;;;31.65;17.75;;;;;;;-4.95;100.00;98211.91;2160768;82;21006;-88
2021/12/28 04:15:51;;;;;;;29.60;15.43;;;;;;;-4.92;100.00;98210.47;2160712;82;21026;-88
2021/12/28 04:18:52;;;;;;;32.23;16.12;;;;;;;-4.87;100.00;98219.11;2160684;82;21093;-87
2021/12/28 04:21:53;;;;;;;32.73;16.97;;;;;;;-4.85;100.00;98217.27;2160983;82;21466;-87
2021/12/28 04:24:54;;;;;;;32.00;16.90;;;;;;;-4.83;100.00;98216.73;2160921;82;21030;-87
2021/12/28 04:27:55;;;;;;;30.62;17.20;;;;;;;-4.84;100.00;98227.06;2160843;82;21033;-87
2021/12/28 04:30:55;;;;;;;30.62;16.90;;;;;;;-4.90;100.00;98216.75;2160824;82;21545;-87
2021/12/28 04:33:56;;;;;;;29.57;17.42;;;;;;;-4.88;100.00;98225.13;2160955;82;20997;-87
2021/12/28 04:36:57;;;;;;;27.22;15.28;;;;;;;-4.84;100.00;98218.12;2160808;82;20979;-87
2021/12/28 04:39:58;;;;;;;36.13;18.27;;;;;;;-4.83;100.00;98216.73;2160856;82;21656;-87
2021/12/28 04:42:59;;;;;;;35.28;19.32;;;;;;;-4.80;100.00;98219.09;2160650;82;21033;-87
2021/12/28 04:46:00;;;;;;;29.72;17.52;;;;;;;-4.77;100.00;98213.78;2160484;82;20987;-87
2021/12/28 04:49:00;;;;;;;31.42;18.32;;;;;;;-4.77;100.00;98209.13;2160827;82;21503;-87
2021/12/28 04:52:02;;;;;;;32.53;17.77;;;;;;;-4.74;100.00;98202.12;2160763;82;21030;-87
2021/12/28 04:55:03;;;;;;;36.73;18.90;;;;;;;-4.73;100.00;98211.42;2161172;82;21013;-86
2021/12/28 04:58:04;;;;;;;33.98;18.20;;;;;;;-4.73;100.00;98202.94;2160935;82;20959;-88
2021/12/28 05:01:04;;;;;;;29.45;18.45;;;;;;;-4.72;100.00;98208.41;2160748;82;21053;-87
2021/12/28 05:04:05;;;;;;;30.02;17.65;;;;;;;-4.69;100.00;98201.81;2160815;82;21550;-87
2021/12/28 05:07:06;;;;;;;28.47;16.93;;;;;;;-4.66;100.00;98207.56;2160588;82;21105;-87
2021/12/28 05:10:07;;;;;;;26.17;15.30;;;;;;;-4.70;100.00;98198.44;2160740;82;21070;-86
2021/12/28 05:13:10;;;;;;;26.48;16.55;;;;;;;-4.68;100.00;98200.89;2160807;82;21018;-89
2021/12/28 05:16:14;;;;;;;26.40;15.80;;;;;;;-4.63;100.00;98200.97;2160826;82;21546;-88
2021/12/28 05:19:14;;;;;;;31.68;17.27;;;;;;;-4.63;100.00;98200.16;2160227;82;21434;-87
2021/12/28 05:22:15;;;;;;;25.20;14.40;;;;;;;-4.65;100.00;98193.05;2160207;82;21062;-88
2021/12/28 05:25:18;;;;;;;25.70;13.45;;;;;;;-4.69;100.00;98189.86;2159218;82;21073;-87
2021/12/28 05:28:19;;;;;;;29.67;18.50;;;;;;;-4.71;100.00;98191.70;2160471;82;21490;-88
2021/12/28 05:31:20;;;;;;;26.93;17.52;;;;;;;-4.67;100.00;98201.25;2159990;82;21067;-87
2021/12/28 05:34:23;;;;;;;25.90;16.95;;;;;;;-4.64;100.00;98203.63;2160755;82;21014;-87
2021/12/28 05:37:23;;;;;;;28.67;16.60;;;;;;;-4.63;100.00;98202.25;2160679;82;21478;-84
2021/12/28 05:40:24;;;;;;;27.82;17.12;;;;;;;-4.60;100.00;98201.23;2160692;82;21033;-85
2021/12/28 05:43:25;;;;;;;30.52;18.92;;;;;;;-4.60;100.00;98196.13;2160941;82;21569;-86
2021/12/28 05:46:25;;;;;;;32.95;18.17;;;;;;;-4.58;100.00;98205.78;2160863;82;21014;-84
2021/12/28 05:49:26;;;;;;;24.52;15.48;;;;;;;-4.53;100.00;98192.73;2160671;82;21512;-88
2021/12/28 05:52:30;;;;;;;29.42;16.52;;;;;;;-4.50;100.00;98189.50;2160802;82;20966;-88
2021/12/28 05:55:34;;;;;;;33.55;16.62;;;;;;;-4.54;100.00;98194.92;2160533;82;21050;-87
2021/12/28 06:01:36;;;;;;;28.62;16.62;;;;;;;-4.58;100.00;98191.27;2104032;84;21078;-87
2021/12/28 06:04:37;;;;;;;24.10;15.68;;;;;;;-4.55;100.00;98199.67;2104166;85;21469;-83
2021/12/28 06:07:38;;;;;;;25.02;15.65;;;;;;;-4.57;100.00;98195.95;2105797;84;21069;-84
2021/12/28 06:10:41;;;;;;;28.20;18.23;;;;;;;-4.57;100.00;98190.84;2036650;87;21057;-88
2021/12/28 06:13:44;;;;;;;28.95;16.60;;;;;;;-4.60;100.00;98185.90;2037420;87;21092;-84
2021/12/28 06:16:45;;;;;;;26.90;16.90;;;;;;;-4.53;100.00;98200.39;2036545;87;21205;-88
2021/12/28 06:19:46;;;;;;;27.48;15.98;;;;;;;-4.50;100.00;98184.39;2036338;87;21051;-88
2021/12/28 06:22:47;;;;;;;28.17;16.00;;;;;;;-4.56;100.00;98196.77;2036440;87;21009;-90
2021/12/28 06:25:48;;;;;;;34.55;19.52;;;;;;;-4.58;100.00;98198.93;2036256;87;21040;-89
2021/12/28 06:28:49;;;;;;;25.92;16.60;;;;;;;-4.59;100.00;98187.53;2036563;87;21137;-85
2021/12/28 06:31:49;;;;;;;29.72;17.60;;;;;;;-4.60;100.00;98185.90;2037213;87;21010;-91
2021/12/28 06:34:50;;;;;;;29.77;16.15;;;;;;;-4.65;100.00;98182.84;2036778;87;21020;-90
2021/12/28 06:37:51;;;;;;;25.30;16.30;;;;;;;-4.69;100.00;98196.70;2036738;87;20977;-89
2021/12/28 06:40:52;;;;;;;20.75;12.78;;;;;;;-4.73;100.00;98195.27;2055024;85;21178;-89
2021/12/28 06:43:53;;;;;;;16.15;12.18;;;;;;;-4.72;100.00;98207.94;2105314;85;21085;-91
2021/12/28 06:46:54;;;;;;;25.82;13.93;;;;;;;-4.72;100.00;98201.55;2105088;85;21022;-90
2021/12/28 06:49:54;;;;;;;33.18;19.20;;;;;;;-4.71;100.00;98201.09;2104654;85;21033;-91
2021/12/28 06:52:55;;;;;;;26.02;14.58;;;;;;;-4.76;100.00;98202.64;2105330;85;21147;-86
2021/12/28 06:55:59;;;;;;;29.82;17.37;;;;;;;-4.77;100.00;98203.56;2105534;85;21016;-89
2021/12/28 06:58:59;;;;;;;25.82;14.13;;;;;;;-4.73;100.00;98192.72;2150154;82;20983;-88
2021/12/28 07:02:00;;;;;;;23.90;13.62;;;;;;;-4.71;100.00;98181.47;2162891;82;20983;-84
2021/12/28 07:05:01;;;;;;;30.82;16.30;;;;;;;-4.79;100.00;98199.47;2161815;82;20962;-84
2021/12/28 07:08:01;;;;;;;27.17;16.60;;;;;;;-4.83;100.00;98200.14;2173380;82;21041;-82
2021/12/28 07:11:02;;;;;;;31.97;16.12;;;;;;;-4.86;100.00;98192.64;2178652;82;20989;-86
2021/12/28 07:14:03;;;;;;;27.65;17.07;;;;;;;-4.80;100.00;98215.27;2178701;82;20961;-86
2021/12/28 07:17:04;;;;;;;30.02;15.13;;;;;;;-4.77;100.00;98230.84;2178271;82;21024;-85
2021/12/28 07:20:05;;;;;;;26.57;16.17;;;;;;;-4.74;100.00;98221.73;2178750;82;21049;-87
2021/12/28 07:23:06;;;;;;;25.12;15.58;;;;;;;-4.69;100.00;98226.08;2178800;82;21584;-86
2021/12/28 07:26:06;;;;;;;23.47;16.02;;;;;;;-4.59;100.00;98227.14;2178495;82;21036;-86
2021/12/28 07:29:07;;;;;;;26.97;15.58;;;;;;;-4.59;100.00;98224.13;2178215;82;20922;-89
2021/12/28 07:32:08;;;;;;;30.37;17.67;;;;;;;-4.52;100.00;98218.64;2178419;82;21044;-85
2021/12/28 07:35:09;;;;;;;22.45;12.68;;;;;;;-4.47;100.00;98226.39;2179842;82;20948;-84
2021/12/28 07:38:10;;;;;;;23.38;16.17;;;;;;;-4.42;100.00;98235.02;2178715;82;20946;-87
2021/12/28 07:41:11;;;;;;;22.85;15.35;;;;;;;-4.37;100.00;98224.06;2179047;82;21413;-87
2021/12/28 07:44:12;;;;;;;28.57;18.25;;;;;;;-4.27;100.00;98228.13;2151279;82;20977;-86
2021/12/28 07:47:13;;;;;;;26.50;15.80;;;;;;;-4.27;100.00;98217.44;2179098;82;21033;-88
2021/12/28 07:50:14;;;;;;;25.68;16.77;;;;;;;-4.29;100.00;98238.45;2178561;82;20997;-87
2021/12/28 07:53:15;;;;;;;26.57;16.23;;;;;;;-4.26;100.00;98237.43;2178161;82;21016;-87
2021/12/28 07:56:15;;;;;;;21.33;15.32;;;;;;;-4.28;100.00;98231.14;2178326;82;21012;-88
2021/12/28 07:59:16;;;;;;;22.62;15.15;;;;;;;-4.25;100.00;98220.70;2178621;82;20981;-89
2021/12/28 08:02:17;;;;;;;17.98;13.93;;;;;;;-4.21;100.00;98220.86;2178320;81;21022;-85
2021/12/28 08:05:18;;;;;;;25.02;14.55;;;;;;;-4.22;100.00;98216.66;2178205;81;20984;-84
2021/12/28 08:08:19;;;;;;;24.32;16.07;;;;;;;-4.18;100.00;98222.41;2165426;81;21002;-87
2021/12/28 08:11:22;;;;;;;25.60;16.37;;;;;;;-4.16;100.00;98229.06;2160769;82;21001;-83
2021/12/28 08:14:23;;;;;;;24.92;15.72;;;;;;;-4.18;100.00;98224.52;2160749;82;21066;-81
2021/12/28 08:17:25;;;;;;;20.80;15.75;;;;;;;-4.22;100.00;98224.80;2160978;82;20986;-86
2021/12/28 08:20:26;;;;;;;25.43;16.57;;;;;;;-4.27;100.00;98203.38;2160759;82;21013;-85
2021/12/28 08:23:27;;;;;;;24.57;16.25;;;;;;;-4.25;100.00;98201.53;2160883;82;21520;-85
2021/12/28 08:26:27;;;;;;;24.63;14.15;;;;;;;-4.18;100.00;98204.52;2160601;82;20983;-86
2021/12/28 08:29:28;;;;;;;27.02;16.93;;;;;;;-4.19;100.00;98193.94;2160717;82;20970;-85
2021/12/28 08:32:29;;;;;;;22.87;15.78;;;;;;;-4.22;100.00;98197.48;2160616;82;20966;-85
2021/12/28 08:35:30;;;;;;;19.95;15.50;;;;;;;-4.23;100.00;98188.19;2160404;82;21073;-85
2021/12/28 08:38:31;;;;;;;24.72;16.90;;;;;;;-4.22;100.00;98181.33;2160744;82;21018;-85
2021/12/28 08:41:32;;;;;;;24.20;16.50;;;;;;;-4.15;100.00;98191.06;2161267;82;20998;-84
2021/12/28 08:44:32;;;;;;;23.02;15.70;;;;;;;-4.13;100.00;98198.62;2160807;82;21009;-85
2021/12/28 08:47:33;;;;;;;23.07;16.90;;;;;;;-4.09;100.00;98199.63;2160360;82;21030;-85
2021/12/28 08:50:35;;;;;;;25.50;16.48;;;;;;;-3.99;100.00;98207.51;2160697;82;21001;-83
2021/12/28 08:53:36;;;;;;;25.45;17.00;;;;;;;-3.89;100.00;98198.30;2161111;82;21069;-81
2021/12/28 08:56:37;;;;;;;19.62;13.50;;;;;;;-3.87;100.00;98193.08;2160620;82;20982;-83
2021/12/28 08:59:38;;;;;;;21.30;16.02;;;;;;;-3.89;100.00;98178.30;2160818;82;20955;-87
2021/12/28 09:02:39;;;;;;;23.02;16.70;;;;;;;-3.95;100.00;98182.53;2160543;82;21071;-84
2021/12/28 09:05:42;;;;;;;26.87;16.73;;;;;;;-3.94;100.00;98189.28;2160759;82;21418;-80
2021/12/28 09:08:42;;;;;;;20.27;14.15;;;;;;;-3.87;100.00;98173.89;2168052;81;21052;-81
2021/12/28 09:11:43;;;;;;;23.62;15.58;;;;;;;-3.84;100.00;98175.81;2170741;82;21005;-82
2021/12/28 09:14:44;;;;;;;21.80;14.98;;;;;;;-3.94;100.00;98176.50;2170845;81;21002;-85
2021/12/28 09:17:45;;;;;;;23.55;15.35;;;;;;;-4.02;100.00;98175.75;2170912;82;21040;-84
2021/12/28 09:20:46;;;;;;;23.32;15.23;;;;;;;-4.05;100.00;98183.61;2170901;81;20993;-82
2021/12/28 09:23:46;;;;;;;23.95;16.80;;;;;;;-4.00;100.00;98180.30;2170797;82;21005;-88
2021/12/28 09:26:47;;;;;;;21.02;15.93;;;;;;;-4.05;100.00;98160.59;2170686;82;20961;-85
2021/12/28 09:29:48;;;;;;;18.07;13.25;;;;;;;-3.99;100.00;98161.47;2170796;81;21104;-83
2021/12/28 09:32:49;;;;;;;23.12;14.40;;;;;;;-4.02;100.00;98161.22;2170735;82;21016;-84
2021/12/28 09:35:50;;;;;;;21.55;14.58;;;;;;;-3.97;100.00;98156.25;2171150;82;21028;-85
2021/12/28 09:38:51;;;;;;;25.15;15.75;;;;;;;-3.96;100.00;98151.03;2171067;81;21036;-82
2021/12/28 09:41:52;;;;;;;25.10;16.87;;;;;;;-3.93;100.00;98150.00;2170824;82;21034;-84
2021/12/28 09:44:53;;;;;;;25.50;17.32;;;;;;;-3.88;100.00;98147.95;2171638;82;20998;-85
2021/12/28 09:47:53;;;;;;;30.88;20.45;;;;;;;-3.87;100.00;98143.20;2170932;81;20962;-89
2021/12/28 09:50:54;;;;;;;24.43;15.90;;;;;;;-3.76;100.00;98141.55;2171217;82;21009;-86
2021/12/28 09:53:55;;;;;;;23.87;15.72;;;;;;;-3.72;100.00;98139.16;2170965;82;21042;-88
2021/12/28 09:56:56;;;;;;;21.65;15.10;;;;;;;-3.69;100.00;98141.95;2170714;81;21076;-87
2021/12/28 09:59:57;;;;;;;23.27;15.95;;;;;;;-3.69;100.00;98142.42;2171012;82;21029;-87
2021/12/28 10:02:58;;;;;;;24.32;16.67;;;;;;;-3.72;100.00;98135.77;2170942;81;21058;-84
2021/12/28 10:05:58;;;;;;;20.92;15.80;;;;;;;-3.73;100.00;98139.27;2170935;82;20997;-82
2021/12/28 10:08:59;;;;;;;21.27;16.30;;;;;;;-3.61;100.00;98146.55;2176361;81;21604;-84
2021/12/28 10:12:00;;;;;;;20.65;15.32;;;;;;;-3.61;100.00;98138.41;2178157;82;21012;-88
2021/12/28 10:15:01;;;;;;;19.35;15.30;;;;;;;-3.64;100.00;98146.31;2178144;82;21019;-85
2021/12/28 10:18:02;;;;;;;16.17;13.58;;;;;;;-3.71;100.00;98145.09;2178131;82;21005;-85
2021/12/28 10:21:03;;;;;;;22.77;14.90;;;;;;;-3.66;100.00;98123.01;2178172;82;21037;-88
2021/12/28 10:24:03;;;;;;;25.23;18.17;;;;;;;-3.72;100.00;98122.98;2178148;82;20990;-88
2021/12/28 10:27:04;;;;;;;24.95;16.65;;;;;;;-3.63;100.00;98141.55;2178185;82;21045;-90
2021/12/28 10:30:05;;;;;;;22.17;16.35;;;;;;;-3.48;100.00;98146.06;2177833;82;21010;-88
2021/12/28 10:33:06;;;;;;;24.77;15.78;;;;;;;-3.41;100.00;98143.44;2178434;82;21282;-85
2021/12/28 10:36:07;;;;;;;28.00;17.35;;;;;;;-3.38;100.00;98139.41;2178318;82;20990;-87
2021/12/28 10:39:08;;;;;;;25.75;17.50;;;;;;;-3.34;100.00;98136.98;2178129;82;21008;-83
2021/12/28 10:42:09;;;;;;;23.15;16.55;;;;;;;-3.26;100.00;98137.73;2178140;82;21501;-84
2021/12/28 10:45:10;;;;;;;25.37;16.55;;;;;;;-3.26;100.00;98130.05;2178269;82;21057;-88
2021/12/28 10:48:11;;;;;;;26.85;18.73;;;;;;;-3.29;100.00;98117.44;2178302;82;21501;-88
2021/12/28 10:51:13;;;;;;;23.27;16.70;;;;;;;-3.32;100.00;98115.11;2178107;82;21038;-86
2021/12/28 10:54:14;;;;;;;24.72;16.67;;;;;;;-3.33;100.00;98127.55;2178061;81;21076;-86
2021/12/28 10:57:15;;;;;;;28.02;15.75;;;;;;;-3.37;100.00;98126.14;2178154;82;21037;-83
2021/12/28 11:00:16;;;;;;;25.08;15.40;;;;;;;-3.40;100.00;98122.50;2178051;82;21048;-87
2021/12/28 11:03:16;;;;;;;25.95;17.77;;;;;;;-3.44;100.00;98103.98;2178133;82;21521;-87
2021/12/28 11:06:17;;;;;;;26.77;17.98;;;;;;;-3.46;100.00;98100.26;2178259;82;20985;-87
2021/12/28 11:09:18;;;;;;;27.55;16.75;;;;;;;-3.38;100.00;98095.04;2164369;81;21077;-84
2021/12/28 11:12:19;;;;;;;23.50;15.43;;;;;;;-3.30;100.00;98092.30;2160703;82;21545;-83
2021/12/28 11:15:20;;;;;;;25.72;17.70;;;;;;;-3.27;100.00;98086.98;2160847;82;21062;-84
2021/12/28 11:18:20;;;;;;;29.07;20.20;;;;;;;-3.31;100.00;98063.78;2160874;82;21557;-90
2021/12/28 11:21:21;;;;;;;31.68;19.82;;;;;;;-3.34;100.00;98074.25;2160989;82;20955;-84
2021/12/28 11:24:22;;;;;;;32.90;19.92;;;;;;;-3.41;100.00;98061.98;2161042;82;21005;-85
2021/12/28 11:27:24;;;;;;;29.27;19.98;;;;;;;-3.41;100.00;98061.98;2160767;82;21078;-85
2021/12/28 11:30:25;;;;;;;29.77;19.95;;;;;;;-3.33;100.00;98072.51;2160621;82;21001;-85
2021/12/28 11:33:26;;;;;;;27.13;19.67;;;;;;;-3.24;100.00;98080.36;2160779;82;21584;-87
2021/12/28 11:36:27;;;;;;;30.57;19.67;;;;;;;-3.29;100.00;98061.11;2160878;82;21073;-88
2021/12/28 11:39:28;;;;;;;24.40;16.97;;;;;;;-3.31;100.00;98061.22;2160590;82;20998;-84
2021/12/28 11:42:29;;;;;;;30.85;20.23;;;;;;;-3.26;100.00;98057.89;2160851;82;20998;-85
2021/12/28 11:45:29;;;;;;;23.67;18.32;;;;;;;-3.21;100.00;98029.38;2160825;82;21001;-90
2021/12/28 11:48:30;;;;;;;29.50;20.50;;;;;;;-3.15;100.00;98028.48;2139601;82;21089;-87
2021/12/28 11:51:31;;;;;;;28.15;19.85;;;;;;;-3.09;100.00;98031.55;2160583;82;21061;-86
2021/12/28 11:54:33;;;;;;;32.40;21.55;;;;;;;-3.04;100.00;98033.30;2160277;82;21588;-86
2021/12/28 11:57:33;;;;;;;26.07;18.25;;;;;;;-3.02;100.00;98028.87;2160733;82;21009;-86
2021/12/28 12:00:34;;;;;;;24.32;17.20;;;;;;;-3.09;100.00;98032.36;2160785;82;21569;-89
2021/12/28 12:03:39;;;;;;;26.25;18.27;;;;;;;-3.20;100.00;98029.30;2160683;82;21052;-88
2021/12/28 12:06:38;;;;;;;26.50;19.87;;;;;;;-3.31;100.00;98015.14;2116721;84;21013;-87
2021/12/28 12:09:38;;;;;;;25.17;18.07;;;;;;;-3.42;100.00;98021.95;2089431;84;21135;-88
2021/12/28 12:12:39;;;;;;;26.05;18.85;;;;;;;-3.53;100.00;98012.02;2111005;84;21035;-88
2021/12/28 12:15:42;;;;;;;26.90;20.45;;;;;;;-3.56;100.00;98010.15;2110940;84;21551;-88
2021/12/28 12:18:43;;;;;;;24.80;17.25;;;;;;;-3.55;100.00;97991.30;2080812;84;21084;-88
2021/12/28 12:21:44;;;;;;;28.98;19.17;;;;;;;-3.46;100.00;97986.81;2111022;84;21635;-88
2021/12/28 12:24:45;;;;;;;21.12;14.70;;;;;;;-3.37;100.00;97987.44;2111058;84;21583;-88
2021/12/28 12:27:45;;;;;;;29.42;21.00;;;;;;;-3.26;100.00;97980.26;2161018;82;20958;-88
2021/12/28 12:30:46;;;;;;;25.30;17.60;;;;;;;-3.25;100.00;97980.61;2160934;82;20986;-88
2021/12/28 12:33:47;;;;;;;29.67;20.48;;;;;;;-3.25;100.00;97973.74;2161070;82;21034;-87
2021/12/28 12:36:51;;;;;;;26.33;17.35;;;;;;;-3.25;100.00;97967.34;2160991;82;21068;-87
2021/12/28 12:39:51;;;;;;;25.27;17.15;;;;;;;-3.35;100.00;97968.13;2161022;82;21081;-87
2021/12/28 12:42:51;;;;;;;27.42;17.45;;;;;;;-3.33;100.00;97961.95;2161077;82;21203;-88
2021/12/28 12:45:52;;;;;;;35.73;20.00;;;;;;;-3.35;100.00;97968.13;2160968;82;21057;-87
2021/12/28 12:48:53;;;;;;;28.07;17.67;;;;;;;-3.34;100.00;97963.34;2170935;82;21520;-88
2021/12/28 12:51:54;;;;;;;33.00;19.55;;;;;;;-3.29;100.00;97973.63;2170887;82;20989;-87
2021/12/28 12:54:55;;;;;;;22.90;15.80;;;;;;;-3.28;100.00;97967.57;2170927;82;21030;-87
2021/12/28 12:57:56;;;;;;;26.93;18.32;;;;;;;-3.30;100.00;97967.30;2171069;82;21101;-85
2021/12/28 13:00:57;;;;;;;30.25;18.23;;;;;;;-3.32;100.00;97969.17;2170718;82;21037;-85
2021/12/28 13:03:58;;;;;;;28.85;16.90;;;;;;;-3.29;100.00;97970.22;2170971;81;20946;-86
2021/12/28 13:06:59;;;;;;;30.37;21.62;;;;;;;-3.22;100.00;97970.95;2172001;81;21020;-88
2021/12/28 13:09:59;;;;;;;29.85;17.15;;;;;;;-3.13;100.00;97969.93;2176760;81;21541;-87
2021/12/28 13:13:00;;;;;;;29.05;18.15;;;;;;;-3.30;100.00;97964.28;2178151;82;21005;-87
2021/12/28 13:16:01;;;;;;;30.05;20.45;;;;;;;-3.41;100.00;97978.33;2178004;82;21557;-85
2021/12/28 13:19:02;;;;;;;30.75;18.73;;;;;;;-3.46;100.00;97976.58;2178170;82;21001;-83
2021/12/28 13:22:03;;;;;;;28.75;16.95;;;;;;;-3.42;100.00;97975.41;2178261;82;21018;-85
2021/12/28 13:25:06;;;;;;;33.28;22.17;;;;;;;-3.36;100.00;97976.73;2179254;81;20950;-85
2021/12/28 13:28:07;;;;;;;30.12;20.23;;;;;;;-3.41;100.00;97974.95;2178074;82;21035;-85
2021/12/28 13:31:08;;;;;;;30.15;18.87;;;;;;;-3.41;100.00;97973.20;2178126;82;21010;-84
2021/12/28 13:34:09;;;;;;;31.50;19.73;;;;;;;-3.46;100.00;97977.85;2178011;82;21073;-88
2021/12/28 13:37:09;;;;;;;33.02;20.23;;;;;;;-3.45;100.00;97982.05;2178045;82;21069;-86
2021/12/28 13:40:10;;;;;;;30.75;19.95;;;;;;;-3.52;100.00;97979.56;2178222;82;21484;-84
2021/12/28 13:43:12;;;;;;;30.57;20.05;;;;;;;-3.55;100.00;97969.55;2178092;82;20970;-87
2021/12/28 13:46:13;;;;;;;30.48;19.27;;;;;;;-3.53;100.00;97954.44;2177977;82;20970;-83
2021/12/28 13:49:16;;;;;;;31.40;20.70;;;;;;;-3.55;100.00;97954.20;2179202;82;20966;-84
2021/12/28 13:52:18;;;;;;;29.35;17.60;;;;;;;-3.60;100.00;97952.42;2178200;82;21461;-83